sensor_id;sensor_type;location;lat;lon;timestamp;pressure;altitude;pressure_sealevel;temperature;humidity
5872;BME280;2962;51.312;7.378;2023-04-21T00:02:02;97253.03;;;4.86;100.00
5872;BME280;2962;51.312;7.378;2023-04-21T00:04:27;97251.47;;;4.85;100.00
5872;BME280;2962;51.312;7.378;2023-04-21T00:06:53;97251.59;;;4.89;100.00
5872;BME280;2962;51.312;7.378;2023-04-21T00:09:20;97237.97;;;4.85;100.00
5872;BME280;2962;51.312;7.378;2023-04-21T00:11:45;97253.72;;;4.96;100.00
5872;BME280;2962;51.312;7.378;2023-04-21T00:14:10;97255.31;;;4.97;100.00
5872;BME280;2962;51.312;7.378;2023-04-21T00:16:36;97251.03;;;4.96;100.00
5872;BME280;2962;51.312;7.378;2023-04-21T00:19:01;97255.19;;;4.93;100.00
5872;BME280;2962;51.312;7.378;2023-04-21T00:21:30;97244.50;;;4.84;100.00
5872;BME280;2962;51.312;7.378;2023-04-21T00:23:56;97233.47;;;4.89;100.00
5872;BME280;2962;51.312;7.378;2023-04-21T00:26:21;97225.69;;;4.88;100.00
5872;BME280;2962;51.312;7.378;2023-04-21T00:28:47;97230.22;;;4.96;100.00
5872;BME280;2962;51.312;7.378;2023-04-21T00:31:12;97202.31;;;4.80;100.00
5872;BME280;2962;51.312;7.378;2023-04-21T00:33:37;97219.09;;;4.85;100.00
5872;BME280;2962;51.312;7.378;2023-04-21T00:36:03;97225.28;;;4.86;100.00
5872;BME280;2962;51.312;7.378;2023-04-21T00:38:28;97207.94;;;4.87;100.00
5872;BME280;2962;51.312;7.378;2023-04-21T00:40:53;97215.38;;;4.90;100.00
5872;BME280;2962;51.312;7.378;2023-04-21T00:43:19;97229.09;;;4.85;100.00
5872;BME280;2962;51.312;7.378;2023-04-21T00:45:44;97222.03;;;4.93;100.00
5872;BME280;2962;51.312;7.378;2023-04-21T00:48:11;97231.22;;;4.92;100.00
5872;BME280;2962;51.312;7.378;2023-04-21T00:50:36;97222.81;;;4.93;100.00
5872;BME280;2962;51.312;7.378;2023-04-21T00:53:01;97230.78;;;4.89;100.00
5872;BME280;2962;51.312;7.378;2023-04-21T00:55:27;97217.50;;;4.84;100.00
5872;BME280;2962;51.312;7.378;2023-04-21T00:57:53;97216.28;;;4.94;100.00
5872;BME280;2962;51.312;7.378;2023-04-21T01:00:20;97209.31;;;4.93;100.00
5872;BME280;2962;51.312;7.378;2023-04-21T01:02:45;97224.38;;;4.94;100.00
5872;BME280;2962;51.312;7.378;2023-04-21T01:05:11;97214.59;;;4.89;100.00
5872;BME280;2962;51.312;7.378;2023-04-21T01:07:37;97216.63;;;4.93;100.00
5872;BME280;2962;51.312;7.378;2023-04-21T01:10:02;97213.81;;;4.89;100.00
5872;BME280;2962;51.312;7.378;2023-04-21T01:12:28;97206.50;;;4.89;100.00
5872;BME280;2962;51.312;7.378;2023-04-21T01:14:53;97198.81;;;4.92;100.00
5872;BME280;2962;51.312;7.378;2023-04-21T01:17:19;97177.22;;;4.92;100.00
5872;BME280;2962;51.312;7.378;2023-04-21T01:19:44;97173.66;;;5.00;100.00
5872;BME280;2962;51.312;7.378;2023-04-21T01:22:11;97180.50;;;4.97;100.00
5872;BME280;2962;51.312;7.378;2023-04-21T01:24:41;97202.09;;;4.97;100.00
5872;BME280;2962;51.312;7.378;2023-04-21T01:27:11;97214.25;;;5.03;100.00
5872;BME280;2962;51.312;7.378;2023-04-21T01:29:38;97209.41;;;5.09;100.00
5872;BME280;2962;51.312;7.378;2023-04-21T01:32:09;97210.19;;;5.09;100.00
5872;BME280;2962;51.312;7.378;2023-04-21T01:34:34;97195.03;;;5.05;100.00
5872;BME280;2962;51.312;7.378;2023-04-21T01:37:00;97213.91;;;5.05;100.00
5872;BME280;2962;51.312;7.378;2023-04-21T01:39:26;97209.66;;;5.04;100.00
5872;BME280;2962;51.312;7.378;2023-04-21T01:41:51;97200.53;;;4.96;100.00
5872;BME280;2962;51.312;7.378;2023-04-21T01:44:17;97204.44;;;5.11;100.00
5872;BME280;2962;51.312;7.378;2023-04-21T01:46:42;97198.50;;;5.05;100.00
5872;BME280;2962;51.312;7.378;2023-04-21T01:49:07;97207.06;;;5.07;100.00
5872;BME280;2962;51.312;7.378;2023-04-21T01:51:33;97198.63;;;5.09;100.00
5872;BME280;2962;51.312;7.378;2023-04-21T01:53:58;97202.44;;;5.08;100.00
5872;BME280;2962;51.312;7.378;2023-04-21T01:56:23;97202.31;;;5.17;100.00
5872;BME280;2962;51.312;7.378;2023-04-21T01:58:49;97200.75;;;5.16;100.00
5872;BME280;2962;51.312;7.378;2023-04-21T02:01:14;97205.16;;;5.08;100.00
5872;BME280;2962;51.312;7.378;2023-04-21T02:03:39;97196.81;;;5.01;100.00
5872;BME280;2962;51.312;7.378;2023-04-21T02:06:05;97197.72;;;5.05;100.00
5872;BME280;2962;51.312;7.378;2023-04-21T02:08:30;97191.41;;;5.01;100.00
5872;BME280;2962;51.312;7.378;2023-04-21T02:10:55;97198.63;;;5.09;100.00
5872;BME280;2962;51.312;7.378;2023-04-21T02:13:21;97190.06;;;5.07;100.00
5872;BME280;2962;51.312;7.378;2023-04-21T02:15:46;97190.50;;;5.09;100.00
5872;BME280;2962;51.312;7.378;2023-04-21T02:18:11;97191.75;;;5.11;100.00
5872;BME280;2962;51.312;7.378;2023-04-21T02:20:37;97200.28;;;5.13;100.00
5872;BME280;2962;51.312;7.378;2023-04-21T02:23:02;97190.06;;;5.19;100.00
5872;BME280;2962;51.312;7.378;2023-04-21T02:25:28;97189.84;;;5.24;100.00
5872;BME280;2962;51.312;7.378;2023-04-21T02:27:54;97195.78;;;5.18;100.00
5872;BME280;2962;51.312;7.378;2023-04-21T02:30:20;97189.84;;;5.12;100.00
5872;BME280;2962;51.312;7.378;2023-04-21T02:32:45;97189.38;;;5.10;100.00
5872;BME280;2962;51.312;7.378;2023-04-21T02:35:10;97202.88;;;5.22;100.00
5872;BME280;2962;51.312;7.378;2023-04-21T02:37:36;97190.63;;;5.12;100.00
5872;BME280;2962;51.312;7.378;2023-04-21T02:40:01;97189.97;;;5.16;100.00
5872;BME280;2962;51.312;7.378;2023-04-21T02:42:26;97190.38;;;5.18;100.00
5872;BME280;2962;51.312;7.378;2023-04-21T02:44:52;97181.75;;;5.12;100.00
5872;BME280;2962;51.312;7.378;2023-04-21T02:47:17;97187.69;;;5.18;100.00
5872;BME280;2962;51.312;7.378;2023-04-21T02:49:42;97192.53;;;5.12;100.00
5872;BME280;2962;51.312;7.378;2023-04-21T02:52:07;97204.56;;;5.14;100.00
5872;BME280;2962;51.312;7.378;2023-04-21T02:54:33;97191.16;;;5.18;100.00
5872;BME280;2962;51.312;7.378;2023-04-21T02:56:58;97201.88;;;5.14;100.00
5872;BME280;2962;51.312;7.378;2023-04-21T02:59:23;97206.03;;;5.24;100.00
5872;BME280;2962;51.312;7.378;2023-04-21T03:01:49;97197.16;;;5.24;100.00
5872;BME280;2962;51.312;7.378;2023-04-21T03:04:14;97187.69;;;5.18;100.00
5872;BME280;2962;51.312;7.378;2023-04-21T03:06:39;97208.84;;;5.28;100.00
5872;BME280;2962;51.312;7.378;2023-04-21T03:09:05;97204.78;;;5.34;100.00
5872;BME280;2962;51.312;7.378;2023-04-21T03:11:30;97202.66;;;5.27;100.00
5872;BME280;2962;51.312;7.378;2023-04-21T03:13:55;97210.19;;;5.34;100.00
5872;BME280;2962;51.312;7.378;2023-04-21T03:16:21;97214.88;;;5.49;100.00
5872;BME280;2962;51.312;7.378;2023-04-21T03:18:46;97208.47;;;5.42;100.00
5872;BME280;2962;51.312;7.378;2023-04-21T03:21:12;97205.00;;;5.41;100.00
5872;BME280;2962;51.312;7.378;2023-04-21T03:23:37;97206.81;;;5.37;100.00
5872;BME280;2962;51.312;7.378;2023-04-21T03:26:06;97206.25;;;5.31;100.00
5872;BME280;2962;51.312;7.378;2023-04-21T03:28:32;97195.88;;;5.33;100.00
5872;BME280;2962;51.312;7.378;2023-04-21T03:30:57;97202.88;;;5.34;100.00
5872;BME280;2962;51.312;7.378;2023-04-21T03:33:22;97198.94;;;5.32;100.00
5872;BME280;2962;51.312;7.378;2023-04-21T03:35:47;97201.19;;;5.30;100.00
5872;BME280;2962;51.312;7.378;2023-04-21T03:38:13;97189.84;;;5.24;100.00
5872;BME280;2962;51.312;7.378;2023-04-21T03:40:38;97196.56;;;5.18;100.00
5872;BME280;2962;51.312;7.378;2023-04-21T03:43:03;97201.31;;;5.21;100.00
5872;BME280;2962;51.312;7.378;2023-04-21T03:45:28;97199.28;;;5.18;100.00
5872;BME280;2962;51.312;7.378;2023-04-21T03:47:54;97200.97;;;5.23;100.00
5872;BME280;2962;51.312;7.378;2023-04-21T03:50:19;97206.56;;;5.30;100.00
5872;BME280;2962;51.312;7.378;2023-04-21T03:52:45;97196.91;;;5.29;100.00
5872;BME280;2962;51.312;7.378;2023-04-21T03:55:10;97190.72;;;5.28;100.00
5872;BME280;2962;51.312;7.378;2023-04-21T03:57:39;97197.69;;;5.29;100.00
5872;BME280;2962;51.312;7.378;2023-04-21T04:00:07;97184.75;;;5.35;100.00
5872;BME280;2962;51.312;7.378;2023-04-21T04:02:34;97204.56;;;5.39;100.00
5872;BME280;2962;51.312;7.378;2023-04-21T04:04:59;97193.41;;;5.41;100.00
5872;BME280;2962;51.312;7.378;2023-04-21T04:07:25;97184.41;;;5.36;100.00
5872;BME280;2962;51.312;7.378;2023-04-21T04:09:50;97183.38;;;5.41;100.00
5872;BME280;2962;51.312;7.378;2023-04-21T04:12:15;97188.06;;;5.56;100.00
5872;BME280;2962;51.312;7.378;2023-04-21T04:14:40;97185.31;;;5.41;100.00
5872;BME280;2962;51.312;7.378;2023-04-21T04:17:06;97183.28;;;5.37;100.00
5872;BME280;2962;51.312;7.378;2023-04-21T04:19:31;97194.06;;;5.37;100.00
5872;BME280;2962;51.312;7.378;2023-04-21T04:21:58;97190.38;;;5.30;100.00
5872;BME280;2962;51.312;7.378;2023-04-21T04:24:23;97199.72;;;5.32;100.00
5872;BME280;2962;51.312;7.378;2023-04-21T04:26:50;97201.19;;;5.30;100.00
5872;BME280;2962;51.312;7.378;2023-04-21T04:29:17;97190.47;;;5.33;100.00
5872;BME280;2962;51.312;7.378;2023-04-21T04:31:43;97185.53;;;5.35;100.00
5872;BME280;2962;51.312;7.378;2023-04-21T04:34:08;97181.34;;;5.38;100.00
5872;BME280;2962;51.312;7.378;2023-04-21T04:36:33;97185.66;;;5.39;100.00
5872;BME280;2962;51.312;7.378;2023-04-21T04:38:58;97187.22;;;5.40;100.00
5872;BME280;2962;51.312;7.378;2023-04-21T04:41:24;97186.22;;;5.32;100.00
5872;BME280;2962;51.312;7.378;2023-04-21T04:43:49;97180.09;;;5.48;100.00
5872;BME280;2962;51.312;7.378;2023-04-21T04:46:15;97185.63;;;5.51;100.00
5872;BME280;2962;51.312;7.378;2023-04-21T04:48:41;97194.63;;;5.55;100.00
5872;BME280;2962;51.312;7.378;2023-04-21T04:51:06;97194.75;;;5.47;100.00
5872;BME280;2962;51.312;7.378;2023-04-21T04:53:31;97193.41;;;5.41;100.00
5872;BME280;2962;51.312;7.378;2023-04-21T04:56:00;97190.28;;;5.38;100.00
5872;BME280;2962;51.312;7.378;2023-04-21T04:58:25;97196.78;;;5.37;100.00
5872;BME280;2962;51.312;7.378;2023-04-21T05:00:50;97199.03;;;5.35;100.00
5872;BME280;2962;51.312;7.378;2023-04-21T05:03:16;97189.94;;;5.28;100.00
5872;BME280;2962;51.312;7.378;2023-04-21T05:05:41;97189.47;;;5.38;100.00
5872;BME280;2962;51.312;7.378;2023-04-21T05:08:06;97188.78;;;5.41;100.00
5872;BME280;2962;51.312;7.378;2023-04-21T05:10:32;97192.84;;;5.47;100.00
5872;BME280;2962;51.312;7.378;2023-04-21T05:12:57;97196.06;;;5.53;100.00
5872;BME280;2962;51.312;7.378;2023-04-21T05:15:22;97198.56;;;5.58;100.00
5872;BME280;2962;51.312;7.378;2023-04-21T05:17:48;97200.13;;;5.59;100.00
5872;BME280;2962;51.312;7.378;2023-04-21T05:20:13;97201.69;;;5.60;100.00
5872;BME280;2962;51.312;7.378;2023-04-21T05:22:39;97200.91;;;5.59;100.00
5872;BME280;2962;51.312;7.378;2023-04-21T05:25:05;97197.38;;;5.71;100.00
5872;BME280;2962;51.312;7.378;2023-04-21T05:27:30;97196.13;;;5.81;100.00
5872;BME280;2962;51.312;7.378;2023-04-21T05:29:55;97198.03;;;5.93;100.00
5872;BME280;2962;51.312;7.378;2023-04-21T05:32:21;97202.25;;;6.06;100.00
5872;BME280;2962;51.312;7.378;2023-04-21T05:34:46;97195.97;;;6.02;100.00
5872;BME280;2962;51.312;7.378;2023-04-21T05:37:11;97191.69;;;6.01;100.00
5872;BME280;2962;51.312;7.378;2023-04-21T05:39:37;97198.09;;;6.08;100.00
5872;BME280;2962;51.312;7.378;2023-04-21T05:42:03;97200.63;;;6.17;100.00
5872;BME280;2962;51.312;7.378;2023-04-21T05:44:28;97203.44;;;6.21;100.00
5872;BME280;2962;51.312;7.378;2023-04-21T05:46:53;97213.16;;;6.38;100.00
5872;BME280;2962;51.312;7.378;2023-04-21T05:49:18;97216.94;;;6.49;100.00
5872;BME280;2962;51.312;7.378;2023-04-21T05:51:44;97208.41;;;6.63;100.00
5872;BME280;2962;51.312;7.378;2023-04-21T05:54:09;97219.44;;;6.85;100.00
5872;BME280;2962;51.312;7.378;2023-04-21T05:56:34;97227.47;;;6.98;100.00
5872;BME280;2962;51.312;7.378;2023-04-21T05:58:59;97215.75;;;7.09;100.00
5872;BME280;2962;51.312;7.378;2023-04-21T06:01:25;97223.16;;;7.28;100.00
5872;BME280;2962;51.312;7.378;2023-04-21T06:03:50;97220.41;;;7.44;100.00
5872;BME280;2962;51.312;7.378;2023-04-21T06:06:16;97218.97;;;7.66;100.00
5872;BME280;2962;51.312;7.378;2023-04-21T06:08:41;97208.06;;;7.82;100.00
5872;BME280;2962;51.312;7.378;2023-04-21T06:11:07;97202.44;;;8.10;100.00
5872;BME280;2962;51.312;7.378;2023-04-21T06:13:32;97202.59;;;8.17;100.00
5872;BME280;2962;51.312;7.378;2023-04-21T06:15:57;97204.22;;;8.41;100.00
5872;BME280;2962;51.312;7.378;2023-04-21T06:18:25;97197.75;;;8.46;100.00
5872;BME280;2962;51.312;7.378;2023-04-21T06:20:51;97191.56;;;8.49;100.00
5872;BME280;2962;51.312;7.378;2023-04-21T06:23:17;97185.91;;;8.58;100.00
5872;BME280;2962;51.312;7.378;2023-04-21T06:25:42;97182.53;;;8.64;100.00
5872;BME280;2962;51.312;7.378;2023-04-21T06:28:07;97187.16;;;8.64;100.00
5872;BME280;2962;51.312;7.378;2023-04-21T06:30:33;97182.84;;;8.59;100.00
5872;BME280;2962;51.312;7.378;2023-04-21T06:32:58;97176.19;;;8.56;100.00
5872;BME280;2962;51.312;7.378;2023-04-21T06:35:23;97180.69;;;8.49;100.00
5872;BME280;2962;51.312;7.378;2023-04-21T06:37:48;97181.84;;;8.28;100.00
5872;BME280;2962;51.312;7.378;2023-04-21T06:40:14;97193.44;;;8.25;100.00
5872;BME280;2962;51.312;7.378;2023-04-21T06:42:41;97203.09;;;8.23;100.00
5872;BME280;2962;51.312;7.378;2023-04-21T06:45:07;97187.75;;;8.11;100.00
5872;BME280;2962;51.312;7.378;2023-04-21T06:47:33;97193.66;;;8.17;100.00
5872;BME280;2962;51.312;7.378;2023-04-21T06:49:58;97190.88;;;8.13;100.00
5872;BME280;2962;51.312;7.378;2023-04-21T06:52:23;97211.94;;;8.20;100.00
5872;BME280;2962;51.312;7.378;2023-04-21T06:54:48;97198.59;;;8.30;100.00
5872;BME280;2962;51.312;7.378;2023-04-21T06:57:14;97191.38;;;8.38;100.00
5872;BME280;2962;51.312;7.378;2023-04-21T06:59:39;97197.81;;;8.49;100.00
5872;BME280;2962;51.312;7.378;2023-04-21T07:02:05;97193.81;;;8.66;100.00
5872;BME280;2962;51.312;7.378;2023-04-21T07:04:30;97195.06;;;8.72;100.00
5872;BME280;2962;51.312;7.378;2023-04-21T07:06:56;97186.25;;;9.02;100.00
5872;BME280;2962;51.312;7.378;2023-04-21T07:09:21;97187.19;;;8.87;100.00
5872;BME280;2962;51.312;7.378;2023-04-21T07:11:47;97180.56;;;8.84;100.00
5872;BME280;2962;51.312;7.378;2023-04-21T07:14:12;97178.91;;;8.79;100.00
5872;BME280;2962;51.312;7.378;2023-04-21T07:16:37;97191.03;;;8.86;100.00
5872;BME280;2962;51.312;7.378;2023-04-21T07:19:03;97183.44;;;8.72;100.00
5872;BME280;2962;51.312;7.378;2023-04-21T07:21:28;97176.56;;;8.78;100.00
5872;BME280;2962;51.312;7.378;2023-04-21T07:24:00;97176.63;;;8.82;100.00
5872;BME280;2962;51.312;7.378;2023-04-21T07:26:26;97174.56;;;8.75;100.00
5872;BME280;2962;51.312;7.378;2023-04-21T07:28:51;97197.69;;;8.88;100.00
5872;BME280;2962;51.312;7.378;2023-04-21T07:31:17;97181.81;;;8.90;100.00
5872;BME280;2962;51.312;7.378;2023-04-21T07:33:42;97196.66;;;8.96;100.00
5872;BME280;2962;51.312;7.378;2023-04-21T07:36:07;97192.91;;;8.82;100.00
5872;BME280;2962;51.312;7.378;2023-04-21T07:38:33;97177.50;;;9.12;100.00
5872;BME280;2962;51.312;7.378;2023-04-21T07:40:58;97171.47;;;9.26;100.00
5872;BME280;2962;51.312;7.378;2023-04-21T07:43:24;97182.66;;;9.21;100.00
5872;BME280;2962;51.312;7.378;2023-04-21T07:45:51;97176.53;;;9.01;100.00
5872;BME280;2962;51.312;7.378;2023-04-21T07:48:17;97187.81;;;9.03;100.00
5872;BME280;2962;51.312;7.378;2023-04-21T07:50:42;97181.00;;;9.13;100.00
5872;BME280;2962;51.312;7.378;2023-04-21T07:53:10;97187.53;;;9.08;100.00
5872;BME280;2962;51.312;7.378;2023-04-21T07:55:35;97192.91;;;9.04;100.00
5872;BME280;2962;51.312;7.378;2023-04-21T07:58:03;97181.13;;;8.97;100.00
5872;BME280;2962;51.312;7.378;2023-04-21T08:00:28;97186.28;;;9.28;100.00
5872;BME280;2962;51.312;7.378;2023-04-21T08:02:53;97186.34;;;9.32;100.00
5872;BME280;2962;51.312;7.378;2023-04-21T08:05:19;97180.63;;;9.41;100.00
5872;BME280;2962;51.312;7.378;2023-04-21T08:07:45;97189.28;;;9.46;100.00
5872;BME280;2962;51.312;7.378;2023-04-21T08:10:11;97184.56;;;9.43;100.00
5872;BME280;2962;51.312;7.378;2023-04-21T08:12:36;97189.50;;;9.64;100.00
5872;BME280;2962;51.312;7.378;2023-04-21T08:15:02;97188.97;;;9.82;100.00
5872;BME280;2962;51.312;7.378;2023-04-21T08:17:31;97188.31;;;9.92;100.00
5872;BME280;2962;51.312;7.378;2023-04-21T08:19:57;97179.63;;;9.83;100.00
5872;BME280;2962;51.312;7.378;2023-04-21T08:22:22;97186.50;;;10.03;100.00
5872;BME280;2962;51.312;7.378;2023-04-21T08:24:47;97180.56;;;9.94;100.00
5872;BME280;2962;51.312;7.378;2023-04-21T08:27:13;97189.47;;;9.91;100.00
5872;BME280;2962;51.312;7.378;2023-04-21T08:29:38;97195.63;;;9.88;100.00
5872;BME280;2962;51.312;7.378;2023-04-21T08:32:04;97197.81;;;9.75;100.00
5872;BME280;2962;51.312;7.378;2023-04-21T08:34:29;97190.13;;;9.81;100.00
5872;BME280;2962;51.312;7.378;2023-04-21T08:36:54;97189.53;;;9.68;100.00
5872;BME280;2962;51.312;7.378;2023-04-21T08:39:20;97183.09;;;9.49;100.00
5872;BME280;2962;51.312;7.378;2023-04-21T08:41:46;97186.63;;;9.80;100.00
5872;BME280;2962;51.312;7.378;2023-04-21T08:44:11;97198.34;;;9.88;100.00
5872;BME280;2962;51.312;7.378;2023-04-21T08:46:37;97188.38;;;9.99;100.00
5872;BME280;2962;51.312;7.378;2023-04-21T08:49:03;97197.25;;;10.22;100.00
5872;BME280;2962;51.312;7.378;2023-04-21T08:51:29;97200.38;;;10.58;100.00
5872;BME280;2962;51.312;7.378;2023-04-21T08:53:56;97187.19;;;10.64;100.00
5872;BME280;2962;51.312;7.378;2023-04-21T08:56:23;97193.94;;;10.77;100.00
5872;BME280;2962;51.312;7.378;2023-04-21T08:58:49;97189.28;;;10.40;100.00
5872;BME280;2962;51.312;7.378;2023-04-21T09:01:15;97193.59;;;10.45;100.00
5872;BME280;2962;51.312;7.378;2023-04-21T09:03:40;97199.72;;;10.72;100.00
5872;BME280;2962;51.312;7.378;2023-04-21T09:06:07;97194.31;;;10.79;100.00
5872;BME280;2962;51.312;7.378;2023-04-21T09:08:37;97192.31;;;10.69;100.00
5872;BME280;2962;51.312;7.378;2023-04-21T09:11:04;97181.00;;;10.67;100.00
5872;BME280;2962;51.312;7.378;2023-04-21T09:13:34;97185.16;;;10.54;100.00
5872;BME280;2962;51.312;7.378;2023-04-21T09:16:01;97195.03;;;10.69;100.00
5872;BME280;2962;51.312;7.378;2023-04-21T09:18:28;97194.63;;;10.67;100.00
5872;BME280;2962;51.312;7.378;2023-04-21T09:21:05;97186.13;;;10.75;100.00
5872;BME280;2962;51.312;7.378;2023-04-21T09:23:31;97179.34;;;10.59;100.00
5872;BME280;2962;51.312;7.378;2023-04-21T09:25:56;97195.84;;;10.73;100.00
5872;BME280;2962;51.312;7.378;2023-04-21T09:28:21;97191.50;;;10.68;100.00
5872;BME280;2962;51.312;7.378;2023-04-21T09:30:56;97186.84;;;10.69;100.00
5872;BME280;2962;51.312;7.378;2023-04-21T09:33:21;97189.88;;;10.60;100.00
5872;BME280;2962;51.312;7.378;2023-04-21T09:35:47;97194.81;;;10.47;100.00
5872;BME280;2962;51.312;7.378;2023-04-21T09:38:12;97206.59;;;10.59;100.00
5872;BME280;2962;51.312;7.378;2023-04-21T09:40:38;97201.47;;;10.50;100.00
5872;BME280;2962;51.312;7.378;2023-04-21T09:43:04;97197.56;;;10.51;100.00
5872;BME280;2962;51.312;7.378;2023-04-21T09:45:30;97191.94;;;10.33;100.00
5872;BME280;2962;51.312;7.378;2023-04-21T09:47:57;97192.88;;;10.48;100.00
5872;BME280;2962;51.312;7.378;2023-04-21T09:50:25;97192.31;;;10.69;100.00
5872;BME280;2962;51.312;7.378;2023-04-21T09:52:52;97174.38;;;10.68;100.00
5872;BME280;2962;51.312;7.378;2023-04-21T09:55:20;97173.09;;;10.55;100.00
5872;BME280;2962;51.312;7.378;2023-04-21T09:57:46;97172.41;;;10.65;100.00
5872;BME280;2962;51.312;7.378;2023-04-21T10:00:18;97167.31;;;10.63;100.00
5872;BME280;2962;51.312;7.378;2023-04-21T10:02:50;97170.22;;;10.81;100.00
5872;BME280;2962;51.312;7.378;2023-04-21T10:05:15;97166.00;;;10.91;100.00
5872;BME280;2962;51.312;7.378;2023-04-21T10:07:43;97177.03;;;11.05;100.00
5872;BME280;2962;51.312;7.378;2023-04-21T10:10:20;97180.22;;;11.11;100.00
5872;BME280;2962;51.312;7.378;2023-04-21T10:12:47;97183.72;;;11.11;100.00
5872;BME280;2962;51.312;7.378;2023-04-21T10:15:38;97184.06;;;11.10;100.00
5872;BME280;2962;51.312;7.378;2023-04-21T10:18:21;97192.59;;;11.01;100.00
5872;BME280;2962;51.312;7.378;2023-04-21T10:23:41;97183.31;;;10.68;100.00
5872;BME280;2962;51.312;7.378;2023-04-21T10:31:51;97185.38;;;10.79;100.00
5872;BME280;2962;51.312;7.378;2023-04-21T10:39:24;97172.34;;;11.02;100.00
5872;BME280;2962;51.312;7.378;2023-04-21T10:41:50;97177.19;;;11.23;100.00
5872;BME280;2962;51.312;7.378;2023-04-21T10:44:16;97168.88;;;11.71;100.00
5872;BME280;2962;51.312;7.378;2023-04-21T10:46:45;97167.53;;;12.13;100.00
5872;BME280;2962;51.312;7.378;2023-04-21T10:49:21;97164.09;;;12.30;100.00
5872;BME280;2962;51.312;7.378;2023-04-21T10:57:15;97150.81;;;12.29;100.00
5872;BME280;2962;51.312;7.378;2023-04-21T10:59:42;97147.66;;;12.19;100.00
5872;BME280;2962;51.312;7.378;2023-04-21T11:02:15;97153.19;;;12.52;100.00
5872;BME280;2962;51.312;7.378;2023-04-21T11:04:41;97153.53;;;12.32;100.00
5872;BME280;2962;51.312;7.378;2023-04-21T11:07:12;97152.06;;;12.92;100.00
5872;BME280;2962;51.312;7.378;2023-04-21T11:09:39;97123.69;;;13.99;100.00
5872;BME280;2962;51.312;7.378;2023-04-21T11:12:10;97122.81;;;14.20;100.00
5872;BME280;2962;51.312;7.378;2023-04-21T11:14:37;97113.69;;;14.40;100.00
5872;BME280;2962;51.312;7.378;2023-04-21T11:17:04;97119.34;;;15.23;100.00
5872;BME280;2962;51.312;7.378;2023-04-21T11:19:34;97099.19;;;14.99;100.00
5872;BME280;2962;51.312;7.378;2023-04-21T11:21:59;97094.03;;;15.05;100.00
5872;BME280;2962;51.312;7.378;2023-04-21T11:24:25;97102.19;;;14.63;100.00
5872;BME280;2962;51.312;7.378;2023-04-21T11:26:50;97093.78;;;14.88;100.00
5872;BME280;2962;51.312;7.378;2023-04-21T11:29:16;97095.75;;;14.88;100.00
5872;BME280;2962;51.312;7.378;2023-04-21T11:31:43;97100.75;;;14.45;100.00
5872;BME280;2962;51.312;7.378;2023-04-21T11:34:11;97105.19;;;14.24;100.00
5872;BME280;2962;51.312;7.378;2023-04-21T11:36:38;97099.84;;;13.99;100.00
5872;BME280;2962;51.312;7.378;2023-04-21T11:39:05;97103.50;;;13.64;100.00
5872;BME280;2962;51.312;7.378;2023-04-21T11:41:35;97099.59;;;13.65;100.00
5872;BME280;2962;51.312;7.378;2023-04-21T11:44:00;97099.22;;;13.59;100.00
5872;BME280;2962;51.312;7.378;2023-04-21T11:46:27;97095.66;;;13.70;100.00
5872;BME280;2962;51.312;7.378;2023-04-21T11:49:03;97086.00;;;13.40;100.00
5872;BME280;2962;51.312;7.378;2023-04-21T11:51:36;97087.97;;;13.29;100.00
5872;BME280;2962;51.312;7.378;2023-04-21T11:54:04;97082.47;;;13.22;100.00
5872;BME280;2962;51.312;7.378;2023-04-21T11:56:34;97071.59;;;12.97;100.00
5872;BME280;2962;51.312;7.378;2023-04-21T11:59:05;97084.09;;;12.94;100.00
5872;BME280;2962;51.312;7.378;2023-04-21T12:01:31;97095.03;;;12.83;100.00
5872;BME280;2962;51.312;7.378;2023-04-21T12:03:56;97103.22;;;12.94;100.00
5872;BME280;2962;51.312;7.378;2023-04-21T12:06:25;97087.19;;;13.17;100.00
5872;BME280;2962;51.312;7.378;2023-04-21T12:09:00;97097.38;;;12.78;100.00
5872;BME280;2962;51.312;7.378;2023-04-21T12:11:27;97077.44;;;12.99;100.00
5872;BME280;2962;51.312;7.378;2023-04-21T12:13:52;97077.81;;;13.29;100.00
5872;BME280;2962;51.312;7.378;2023-04-21T12:16:20;97070.53;;;13.96;100.00
5872;BME280;2962;51.312;7.378;2023-04-21T12:18:47;97070.25;;;14.39;100.00
5872;BME280;2962;51.312;7.378;2023-04-21T12:21:13;97069.28;;;14.67;100.00
5872;BME280;2962;51.312;7.378;2023-04-21T12:23:39;97063.19;;;15.31;100.00
5872;BME280;2962;51.312;7.378;2023-04-21T12:26:04;97056.88;;;15.72;100.00
5872;BME280;2962;51.312;7.378;2023-04-21T12:28:30;97054.47;;;16.05;100.00
5872;BME280;2962;51.312;7.378;2023-04-21T12:30:55;97047.22;;;16.18;100.00
5872;BME280;2962;51.312;7.378;2023-04-21T12:33:20;97042.78;;;15.97;100.00
5872;BME280;2962;51.312;7.378;2023-04-21T12:35:46;97047.22;;;16.18;100.00
5872;BME280;2962;51.312;7.378;2023-04-21T12:38:11;97045.09;;;17.03;100.00
5872;BME280;2962;51.312;7.378;2023-04-21T12:40:36;97032.00;;;17.31;100.00
5872;BME280;2962;51.312;7.378;2023-04-21T12:43:02;97024.00;;;18.13;100.00
5872;BME280;2962;51.312;7.378;2023-04-21T12:45:27;97024.75;;;18.82;100.00
5872;BME280;2962;51.312;7.378;2023-04-21T12:47:52;97014.09;;;19.42;100.00
5872;BME280;2962;51.312;7.378;2023-04-21T12:50:19;97012.72;;;19.05;100.00
5872;BME280;2962;51.312;7.378;2023-04-21T12:52:44;97011.59;;;18.04;100.00
5872;BME280;2962;51.312;7.378;2023-04-21T12:55:10;96998.50;;;17.52;100.00
5872;BME280;2962;51.312;7.378;2023-04-21T12:57:37;97004.53;;;18.03;100.00
5872;BME280;2962;51.312;7.378;2023-04-21T13:00:03;97004.56;;;17.64;100.00
5872;BME280;2962;51.312;7.378;2023-04-21T13:02:29;97002.81;;;17.73;100.00
5872;BME280;2962;51.312;7.378;2023-04-21T13:05:00;97009.47;;;17.16;100.00
5872;BME280;2962;51.312;7.378;2023-04-21T13:07:29;96998.94;;;16.91;100.00
5872;BME280;2962;51.312;7.378;2023-04-21T13:09:56;97000.28;;;16.05;100.00
5872;BME280;2962;51.312;7.378;2023-04-21T13:12:21;97004.28;;;16.28;100.00
5872;BME280;2962;51.312;7.378;2023-04-21T13:14:46;97003.91;;;16.26;100.00
5872;BME280;2962;51.312;7.378;2023-04-21T13:17:13;96986.69;;;16.22;100.00
5872;BME280;2962;51.312;7.378;2023-04-21T13:19:39;96983.34;;;16.10;100.00
5872;BME280;2962;51.312;7.378;2023-04-21T13:22:05;96991.22;;;16.08;100.00
5872;BME280;2962;51.312;7.378;2023-04-21T13:24:30;96983.00;;;16.55;100.00
5872;BME280;2962;51.312;7.378;2023-04-21T13:26:59;96983.88;;;16.49;100.00
5872;BME280;2962;51.312;7.378;2023-04-21T13:29:26;96977.69;;;17.12;100.00
5872;BME280;2962;51.312;7.378;2023-04-21T13:31:57;96982.69;;;18.45;100.00